Almagrundet, Sweden

6:28 PM CEST on May 05, 2015 (GMT +0200)
Saltaro | | Change Station
CLOSE
Current Station
Personal Weather Station
Location: Saltaro, VARMDO
Elevation: 46 ft
Nearby Weather Stations

Elev 46 ft 59.34 °N, 18.62 °E | Updated 8 seconds ago

Mostly Cloudy
Mostly Cloudy
46.2 °F
Feels Like 46 °F
N
2.2
Wind Variable Wind from SE
Gusts 3.8 mph

Today
High -- | Low -- °F
--% Chance of Precip.
Yesterday
High -- | Low -- °F
Precip. -- in
4:36 AM 8:45 PM
Full, 98% visible
Pressure 29.83 in
Visibility 5.0 miles
Clouds Mostly Cloudy 400 ft
Windchill 46 °F
Dew Point 41 °F
Humidity 81%
Rainfall 0.00 in
Snow Depth Not available.
UV 1 out of 12
Pollen Not available.
Air Quality Not available.
Flu Activity Not available.
METAR ESSB 051620Z 11010KT 8000 BR BKN004 08/06 Q1010

More Conditions Fewer Conditions

Pressure 29.83 in
Visibility 5.0 miles
Clouds Mostly Cloudy 400 ft
Windchill 46 °F
Dew Point 41 °F
Humidity 81%
Rainfall 0.00 in
Snow Depth Not available.
UV 1 out of 12
Pollen Not available.
Air Quality Not available.
Flu Activity Not available.
METAR ESSB 051620Z 11010KT 8000 BR BKN004 08/06 Q1010

More Conditions Fewer Conditions

10-Day Weather Forecast

Almanac

Astronomy

May. 05, 2015 Rise Set
Actual Time
Civil Twilight
Nautical Twilight
Astronomical Twilight
Moon
Length of Visible Light
Length of Day
Tomorrow will be .
, % of the Moon is Illuminated

Today's Extremes

Country Highs Country Lows

Community

WunderPhotos

Upload Photos

1,818,936 photos uploaded!

WunderBlogs® & News

Nearby

Air Quality

  Air Quality AQ Index Pollutant
Not available.

Snow Depth

Station Depth Elevation

Earthquake Activity

City Distance Mag. Time & Date
Minimum magnitude displayed is 2.5.

Coastal Water Temperatures

Place Temperature

Stations

Nearby Weather Stations

Station Location Temp. Windchill Dew Point Humidity Wind Precip. Elev Updated Type